Time;durP1;ratioP1;P1;durP2;ratioP2;P2;SDS_P1;SDS_P2;PMS_P1;PMS_P2;Temp;Humidity;BMP_temperature;BMP_pressure;BME280_temperature;BME280_humidity;BME280_pressure;Samples;Min_cycle;Max_cycle;Signal;HPM_P1;HPM_P2
2023/10/20 00:00:54;;;;;;;;;;;;;;;;;;5068189;28;20007;-59
2023/10/20 00:03:20;;;;;;;;;;;;;;;;;;5068019;28;19908;-59
2023/10/20 00:05:46;;;;;;;;;;;;;;;;;;5068273;28;20020;-59
2023/10/20 00:08:11;;;;;;;;;;;;;;;;;;5066611;28;19954;-59
2023/10/20 00:10:39;;;;;;;;;;;;;;;;;;5064899;28;19995;-58
2023/10/20 00:13:06;;;;;;;;;;;;;;;;;;5069900;28;19909;-59
2023/10/20 00:15:31;;;;;;;;;;;;;;;;;;5068697;28;19913;-59
2023/10/20 00:17:57;;;;;;;;;;;;;;;;;;5068952;28;20009;-58
2023/10/20 00:20:23;;;;;;;;;;;;;;;;;;5062607;28;19942;-61
2023/10/20 00:22:50;;;;;;;;;;;;;;;;;;5066659;28;20354;-59
2023/10/20 00:25:17;;;;;;;;;;;;;;;;;;5066253;28;20020;-59
2023/10/20 00:27:42;;;;;;;;;;;;;;;;;;5069919;28;20003;-58
2023/10/20 00:30:09;;;;;;;;;;;;;;;;;;5070069;28;20054;-59
2023/10/20 00:32:35;;;;;;;;;;;;;;;;;;5068821;28;19913;-59
2023/10/20 00:35:03;;;;;;;;;;;;;;;;;;5065108;28;19904;-59
2023/10/20 00:37:29;;;;;;;;;;;;;;;;;;5065842;28;19935;-59
2023/10/20 00:39:55;;;;;;;;;;;;;;;;;;5065593;28;19963;-59
2023/10/20 00:42:21;;;;;;;;;;;;;;;;;;5065106;28;19951;-59
2023/10/20 00:44:47;;;;;;;;;;;;;;;;;;5070078;28;19995;-59
2023/10/20 00:47:14;;;;;;;;;;;;;;;;;;5069276;28;20168;-60
2023/10/20 00:49:40;;;;;;;;;;;;;;;;;;5070958;28;19935;-60
2023/10/20 00:52:07;;;;;;;;;;;;;;;;;;5066324;28;20013;-59
2023/10/20 00:54:33;;;;;;;;;;;;;;;;;;5065617;28;19913;-61
2023/10/20 00:56:59;;;;;;;;;;;;;;;;;;5066289;28;19954;-60
2023/10/20 00:59:25;;;;;;;;;;;;;;;;;;5064926;28;20368;-61
2023/10/20 01:01:51;;;;;;;;;;;;;;;;;;5055158;28;19970;-59
2023/10/20 01:04:19;;;;;;;;;;;;;;;;;;5061847;28;20293;-59
2023/10/20 01:06:48;;;;;;;;;;;;;;;;;;5066400;28;19914;-59
2023/10/20 01:09:16;;;;;;;;;;;;;;;;;;5066255;28;19912;-59
2023/10/20 01:11:42;;;;;;;;;;;;;;;;;;5065931;28;20412;-60
2023/10/20 01:14:08;;;;;;;;;;;;;;;;;;5064692;28;19995;-59
2023/10/20 01:16:33;;;;;;;;;;;;;;;;;;5066548;28;20317;-59
2023/10/20 01:19:00;;;;;;;;;;;;;;;;;;5067190;28;20348;-59
2023/10/20 01:21:26;;;;;;;;;;;;;;;;;;5060414;28;19920;-59
2023/10/20 01:23:53;;;;;;;;;;;;;;;;;;5063724;28;19912;-59
2023/10/20 01:26:23;;;;;;;;;;;;;;;;;;5065568;28;19912;-60
2023/10/20 01:28:49;;;;;;;;;;;;;;;;;;5066021;28;19965;-59
2023/10/20 01:31:15;;;;;;;;;;;;;;;;;;5065994;28;19974;-59
2023/10/20 01:33:40;;;;;;;;;;;;;;;;;;5067676;28;19912;-59
2023/10/20 01:36:06;;;;;;;;;;;;;;;;;;5066364;28;20370;-59
2023/10/20 01:38:33;;;;;;;;;;;;;;;;;;5061158;28;20245;-59
2023/10/20 01:40:58;;;;;;;;;;;;;;;;;;5062305;28;19955;-58
2023/10/20 01:43:24;;;;;;;;;;;;;;;;;;5067968;28;21372;-59
2023/10/20 01:45:51;;;;;;;;;;;;;;;;;;5067002;28;20065;-58
2023/10/20 01:48:16;;;;;;;;;;;;;;;;;;5067626;28;19978;-59
2023/10/20 01:50:42;;;;;;;;;;;;;;;;;;5062202;28;19985;-58
2023/10/20 01:53:08;;;;;;;;;;;;;;;;;;5067127;28;19982;-58
2023/10/20 01:55:34;;;;;;;;;;;;;;;;;;5062268;28;20345;-59
2023/10/20 01:58:00;;;;;;;;;;;;;;;;;;5065197;28;20067;-58
2023/10/20 02:00:26;;;;;;;;;;;;;;;;;;5065977;28;19908;-58
2023/10/20 02:02:52;;;;;;;;;;;;;;;;;;5065973;28;20372;-58
2023/10/20 02:05:18;;;;;;;;;;;;;;;;;;5066202;28;19959;-58
2023/10/20 02:07:44;;;;;;;;;;;;;;;;;;5066567;28;20049;-58
2023/10/20 02:10:10;;;;;;;;;;;;;;;;;;5067178;28;20434;-58
2023/10/20 02:12:36;;;;;;;;;;;;;;;;;;5057357;28;19924;-58
2023/10/20 02:15:04;;;;;;;;;;;;;;;;;;5067129;28;20253;-58
2023/10/20 02:17:30;;;;;;;;;;;;;;;;;;5065973;28;19908;-58
2023/10/20 02:19:56;;;;;;;;;;;;;;;;;;5066793;28;19959;-59
2023/10/20 02:22:22;;;;;;;;;;;;;;;;;;5066358;28;19958;-58
2023/10/20 02:24:48;;;;;;;;;;;;;;;;;;5067230;28;19908;-58
2023/10/20 02:27:15;;;;;;;;;;;;;;;;;;5066865;28;20329;-58
2023/10/20 02:29:42;;;;;;;;;;;;;;;;;;5067869;28;19947;-58
2023/10/20 02:32:08;;;;;;;;;;;;;;;;;;5065394;28;19963;-58
2023/10/20 02:34:34;;;;;;;;;;;;;;;;;;5060633;28;19919;-58
2023/10/20 02:37:00;;;;;;;;;;;;;;;;;;5066997;28;20308;-58
2023/10/20 02:39:26;;;;;;;;;;;;;;;;;;5068147;28;20422;-58
2023/10/20 02:41:52;;;;;;;;;;;;;;;;;;5061736;28;19959;-58
2023/10/20 02:44:18;;;;;;;;;;;;;;;;;;5066324;28;20383;-58
2023/10/20 02:46:47;;;;;;;;;;;;;;;;;;5062667;28;20010;-58
2023/10/20 02:49:13;;;;;;;;;;;;;;;;;;5067776;28;20000;-58
2023/10/20 02:51:39;;;;;;;;;;;;;;;;;;5065164;28;19924;-58
2023/10/20 02:54:05;;;;;;;;;;;;;;;;;;5065918;28;19923;-58
2023/10/20 02:56:31;;;;;;;;;;;;;;;;;;5059809;28;19912;-59
2023/10/20 02:58:57;;;;;;;;;;;;;;;;;;5064663;28;19947;-58
2023/10/20 03:01:23;;;;;;;;;;;;;;;;;;5063834;28;19999;-58
2023/10/20 03:03:49;;;;;;;;;;;;;;;;;;5063705;28;19916;-58
2023/10/20 03:06:16;;;;;;;;;;;;;;;;;;5061520;28;19943;-58
2023/10/20 03:08:42;;;;;;;;;;;;;;;;;;5068618;28;20071;-58
2023/10/20 03:11:08;;;;;;;;;;;;;;;;;;5065503;28;19912;-59
2023/10/20 03:13:34;;;;;;;;;;;;;;;;;;5067277;28;20335;-58
2023/10/20 03:16:00;;;;;;;;;;;;;;;;;;5063750;28;19948;-58
2023/10/20 03:18:26;;;;;;;;;;;;;;;;;;5067644;28;19931;-58
2023/10/20 03:20:52;;;;;;;;;;;;;;;;;;5065557;28;19963;-58
2023/10/20 03:23:20;;;;;;;;;;;;;;;;;;5071089;28;20811;-59
2023/10/20 03:25:46;;;;;;;;;;;;;;;;;;5069075;28;19922;-58
2023/10/20 03:28:12;;;;;;;;;;;;;;;;;;5066153;28;19999;-58
2023/10/20 03:30:38;;;;;;;;;;;;;;;;;;5069424;28;20407;-58
2023/10/20 03:33:05;;;;;;;;;;;;;;;;;;5069640;28;19958;-58
2023/10/20 03:35:31;;;;;;;;;;;;;;;;;;5069719;28;19912;-58
2023/10/20 03:37:58;;;;;;;;;;;;;;;;;;5070042;28;19908;-58
2023/10/20 03:40:30;;;;;;;;;;;;;;;;;;5070238;28;20340;-59
2023/10/20 03:42:57;;;;;;;;;;;;;;;;;;5069732;28;19959;-58
2023/10/20 03:45:24;;;;;;;;;;;;;;;;;;5070261;28;20611;-58
2023/10/20 03:47:50;;;;;;;;;;;;;;;;;;5068333;28;20279;-58
2023/10/20 03:50:17;;;;;;;;;;;;;;;;;;5069104;28;19916;-58
2023/10/20 03:52:45;;;;;;;;;;;;;;;;;;5070187;28;19908;-61
2023/10/20 03:55:13;;;;;;;;;;;;;;;;;;5064963;28;19912;-61
2023/10/20 03:57:40;;;;;;;;;;;;;;;;;;5068868;28;20367;-60
2023/10/20 04:00:21;;;;;;;;;;;;;;;;;;5070705;28;19981;-60
2023/10/20 04:02:47;;;;;;;;;;;;;;;;;;5064290;28;19919;-60
2023/10/20 04:05:14;;;;;;;;;;;;;;;;;;5066791;28;20034;-60
2023/10/20 04:07:40;;;;;;;;;;;;;;;;;;5059016;28;19913;-60
2023/10/20 04:10:06;;;;;;;;;;;;;;;;;;5068533;28;19908;-60
2023/10/20 04:12:32;;;;;;;;;;;;;;;;;;5076217;28;20002;-60
2023/10/20 04:14:59;;;;;;;;;;;;;;;;;;5070309;28;19912;-60
2023/10/20 04:17:25;;;;;;;;;;;;;;;;;;5067709;28;20391;-60
2023/10/20 04:19:52;;;;;;;;;;;;;;;;;;5066571;28;20102;-60
2023/10/20 04:22:18;;;;;;;;;;;;;;;;;;5066897;28;19962;-63
2023/10/20 04:24:44;;;;;;;;;;;;;;;;;;5069409;28;19908;-60
2023/10/20 04:27:21;;;;;;;;;;;;;;;;;;5069130;28;20457;-60
2023/10/20 04:44:57;;;;;;;;;;;;;;;;;;5066718;28;20042;-58
2023/10/20 04:54:58;;;;;;;;;;;;;;;;;;5068731;28;19955;-58
2023/10/20 05:07:52;;;;;;;;;;;;;;;;;;5067038;28;19926;-60
2023/10/20 05:10:18;;;;;;;;;;;;;;;;;;5068164;28;19909;-60
2023/10/20 05:12:44;;;;;;;;;;;;;;;;;;5067596;28;19977;-60
2023/10/20 05:15:13;;;;;;;;;;;;;;;;;;5068057;28;20347;-60
2023/10/20 05:17:39;;;;;;;;;;;;;;;;;;5066332;28;19912;-60
2023/10/20 05:20:14;;;;;;;;;;;;;;;;;;5067944;28;19950;-61
2023/10/20 05:22:40;;;;;;;;;;;;;;;;;;5067600;28;20287;-60
2023/10/20 05:25:06;;;;;;;;;;;;;;;;;;5064034;28;19908;-60
2023/10/20 05:27:32;;;;;;;;;;;;;;;;;;5059608;28;19974;-61
2023/10/20 05:29:58;;;;;;;;;;;;;;;;;;5064683;28;20307;-60
2023/10/20 05:32:23;;;;;;;;;;;;;;;;;;5066137;28;19921;-60
2023/10/20 05:34:54;;;;;;;;;;;;;;;;;;5067047;28;19952;-60
2023/10/20 05:37:23;;;;;;;;;;;;;;;;;;5060735;28;19939;-61
2023/10/20 05:39:49;;;;;;;;;;;;;;;;;;5067274;28;19916;-61
2023/10/20 05:42:16;;;;;;;;;;;;;;;;;;5059335;28;19952;-60
2023/10/20 05:47:27;;;;;;;;;;;;;;;;;;5061740;28;20299;-60
2023/10/20 05:49:53;;;;;;;;;;;;;;;;;;5065783;28;20335;-61
2023/10/20 05:52:20;;;;;;;;;;;;;;;;;;5065211;28;19916;-61
2023/10/20 05:54:46;;;;;;;;;;;;;;;;;;5060769;28;19916;-61
2023/10/20 05:57:11;;;;;;;;;;;;;;;;;;5063009;28;20281;-61
2023/10/20 05:59:37;;;;;;;;;;;;;;;;;;5062820;28;20349;-61
2023/10/20 06:02:03;;;;;;;;;;;;;;;;;;5066327;28;20288;-61
2023/10/20 06:04:29;;;;;;;;;;;;;;;;;;5067026;28;20015;-60
2023/10/20 06:06:56;;;;;;;;;;;;;;;;;;5060015;28;20014;-61
2023/10/20 06:09:25;;;;;;;;;;;;;;;;;;5066349;28;19919;-60
2023/10/20 06:11:53;;;;;;;;;;;;;;;;;;5067015;28;19909;-61
2023/10/20 06:14:20;;;;;;;;;;;;;;;;;;5067521;28;19948;-61
2023/10/20 06:16:46;;;;;;;;;;;;;;;;;;5065856;28;19908;-61
2023/10/20 06:19:11;;;;;;;;;;;;;;;;;;5068173;28;20001;-62
2023/10/20 06:21:42;;;;;;;;;;;;;;;;;;5065565;28;20252;-61
2023/10/20 06:24:08;;;;;;;;;;;;;;;;;;5066843;28;19912;-59
2023/10/20 06:26:34;;;;;;;;;;;;;;;;;;5065235;28;20387;-58
2023/10/20 06:29:00;;;;;;;;;;;;;;;;;;5066769;28;19915;-58
2023/10/20 06:36:51;;;;;;;;;;;;;;;;;;5066449;28;20507;-58
2023/10/20 06:39:18;;;;;;;;;;;;;;;;;;5067362;28;19924;-58
2023/10/20 06:41:44;;;;;;;;;;;;;;;;;;5066553;28;20357;-57
2023/10/20 06:44:10;;;;;;;;;;;;;;;;;;5066940;28;20465;-57
2023/10/20 06:46:36;;;;;;;;;;;;;;;;;;5051060;28;19916;-59
2023/10/20 06:49:04;;;;;;;;;;;;;;;;;;5066089;28;20028;-59
2023/10/20 06:51:30;;;;;;;;;;;;;;;;;;5062552;28;20067;-57
2023/10/20 06:53:56;;;;;;;;;;;;;;;;;;5068520;28;20222;-57
2023/10/20 06:56:22;;;;;;;;;;;;;;;;;;5068977;28;19912;-57
2023/10/20 06:58:48;;;;;;;;;;;;;;;;;;5070178;28;19912;-57
2023/10/20 07:01:14;;;;;;;;;;;;;;;;;;5068577;28;19912;-57
2023/10/20 07:03:40;;;;;;;;;;;;;;;;;;5069183;28;20295;-58
2023/10/20 07:06:11;;;;;;;;;;;;;;;;;;5068862;28;19916;-60
2023/10/20 07:08:37;;;;;;;;;;;;;;;;;;5063057;28;19912;-59
2023/10/20 07:11:03;;;;;;;;;;;;;;;;;;5065307;28;19920;-59
2023/10/20 07:13:29;;;;;;;;;;;;;;;;;;5068157;28;19911;-58
2023/10/20 07:15:57;;;;;;;;;;;;;;;;;;5064927;28;20426;-60
2023/10/20 07:18:23;;;;;;;;;;;;;;;;;;5068859;28;19991;-58
2023/10/20 07:20:52;;;;;;;;;;;;;;;;;;5066251;28;20701;-59
2023/10/20 07:23:18;;;;;;;;;;;;;;;;;;5064458;28;20883;-57
2023/10/20 07:25:44;;;;;;;;;;;;;;;;;;5068166;28;20081;-58
2023/10/20 07:28:11;;;;;;;;;;;;;;;;;;5069227;28;20309;-58
2023/10/20 07:30:37;;;;;;;;;;;;;;;;;;5066731;28;19967;-59
2023/10/20 07:33:07;;;;;;;;;;;;;;;;;;5066206;28;19909;-58
2023/10/20 07:35:33;;;;;;;;;;;;;;;;;;5067279;28;19909;-58
2023/10/20 07:38:04;;;;;;;;;;;;;;;;;;5066616;28;20319;-59
2023/10/20 07:40:34;;;;;;;;;;;;;;;;;;5065884;28;20299;-59
2023/10/20 07:43:00;;;;;;;;;;;;;;;;;;5067854;28;19931;-59
2023/10/20 07:45:28;;;;;;;;;;;;;;;;;;5066629;28;20003;-58
2023/10/20 07:47:54;;;;;;;;;;;;;;;;;;5065790;28;20220;-59
2023/10/20 07:50:21;;;;;;;;;;;;;;;;;;5068070;28;19934;-61
2023/10/20 07:52:47;;;;;;;;;;;;;;;;;;5063343;28;19920;-61
2023/10/20 07:55:17;;;;;;;;;;;;;;;;;;5069666;28;19933;-63
2023/10/20 07:57:43;;;;;;;;;;;;;;;;;;5065501;28;19981;-61
2023/10/20 08:00:13;;;;;;;;;;;;;;;;;;5066596;28;20510;-62
2023/10/20 08:02:39;;;;;;;;;;;;;;;;;;5075417;28;20459;-61
2023/10/20 08:05:05;;;;;;;;;;;;;;;;;;5064305;28;20344;-62
2023/10/20 08:07:31;;;;;;;;;;;;;;;;;;5066540;28;19952;-61
2023/10/20 08:09:58;;;;;;;;;;;;;;;;;;5071791;28;20419;-61
2023/10/20 08:12:24;;;;;;;;;;;;;;;;;;5064559;28;20276;-62
2023/10/20 08:14:50;;;;;;;;;;;;;;;;;;5067564;28;19952;-62
2023/10/20 08:17:16;;;;;;;;;;;;;;;;;;5066180;28;20015;-62
2023/10/20 08:19:42;;;;;;;;;;;;;;;;;;5064023;28;20010;-61
2023/10/20 08:22:08;;;;;;;;;;;;;;;;;;5063838;28;20006;-62
2023/10/20 08:24:34;;;;;;;;;;;;;;;;;;5068317;28;19916;-64
2023/10/20 08:27:01;;;;;;;;;;;;;;;;;;5065858;28;19961;-60
2023/10/20 08:29:30;;;;;;;;;;;;;;;;;;5068346;28;19920;-60
2023/10/20 08:31:56;;;;;;;;;;;;;;;;;;5065919;28;19916;-60
2023/10/20 08:34:23;;;;;;;;;;;;;;;;;;5065843;28;19913;-59
2023/10/20 08:36:49;;;;;;;;;;;;;;;;;;5064666;28;19931;-59
2023/10/20 08:39:19;;;;;;;;;;;;;;;;;;5065285;28;19912;-59
2023/10/20 08:41:45;;;;;;;;;;;;;;;;;;5067064;28;19967;-59
2023/10/20 08:44:14;;;;;;;;;;;;;;;;;;5069674;28;19939;-58
2023/10/20 08:46:40;;;;;;;;;;;;;;;;;;5059784;28;20342;-58
2023/10/20 08:49:07;;;;;;;;;;;;;;;;;;5066722;28;21143;-58
2023/10/20 08:51:33;;;;;;;;;;;;;;;;;;5066988;28;20348;-58
2023/10/20 08:53:59;;;;;;;;;;;;;;;;;;5068908;28;19955;-58
2023/10/20 08:56:26;;;;;;;;;;;;;;;;;;5065440;28;19951;-58
2023/10/20 08:58:52;;;;;;;;;;;;;;;;;;5069377;28;19934;-58
2023/10/20 09:01:18;;;;;;;;;;;;;;;;;;5060225;28;19943;-58
2023/10/20 09:03:44;;;;;;;;;;;;;;;;;;5068921;28;20294;-58
2023/10/20 09:06:12;;;;;;;;;;;;;;;;;;5070387;28;19911;-59
2023/10/20 09:08:38;;;;;;;;;;;;;;;;;;5071500;28;19956;-58
2023/10/20 09:11:05;;;;;;;;;;;;;;;;;;5064920;28;19912;-58
2023/10/20 09:13:32;;;;;;;;;;;;;;;;;;5062758;28;19912;-58
2023/10/20 09:15:58;;;;;;;;;;;;;;;;;;5063379;28;19985;-58
2023/10/20 09:18:25;;;;;;;;;;;;;;;;;;5066581;28;20423;-58
2023/10/20 09:20:52;;;;;;;;;;;;;;;;;;5066720;28;19916;-58
2023/10/20 09:23:18;;;;;;;;;;;;;;;;;;5065658;28;20323;-58
2023/10/20 09:25:44;;;;;;;;;;;;;;;;;;5065916;28;19940;-58
2023/10/20 09:28:10;;;;;;;;;;;;;;;;;;5064468;28;19927;-58
2023/10/20 09:30:37;;;;;;;;;;;;;;;;;;5057471;28;20022;-58
2023/10/20 09:33:03;;;;;;;;;;;;;;;;;;5064172;28;19969;-58
2023/10/20 09:35:30;;;;;;;;;;;;;;;;;;5057641;28;19916;-58
2023/10/20 09:37:56;;;;;;;;;;;;;;;;;;5065756;28;20355;-60
2023/10/20 09:40:22;;;;;;;;;;;;;;;;;;5059695;28;19920;-60
2023/10/20 09:42:48;;;;;;;;;;;;;;;;;;5064339;28;20417;-60
2023/10/20 09:45:14;;;;;;;;;;;;;;;;;;5065615;28;19932;-60
2023/10/20 09:47:40;;;;;;;;;;;;;;;;;;5063713;28;19950;-59
2023/10/20 09:50:06;;;;;;;;;;;;;;;;;;5066560;28;19912;-58
2023/10/20 09:52:32;;;;;;;;;;;;;;;;;;5066475;28;19916;-58
2023/10/20 09:54:58;;;;;;;;;;;;;;;;;;5064778;28;19908;-56
2023/10/20 09:57:26;;;;;;;;;;;;;;;;;;5063251;28;20037;-56
2023/10/20 09:59:52;;;;;;;;;;;;;;;;;;5066040;28;19968;-57
2023/10/20 10:02:18;;;;;;;;;;;;;;;;;;5063960;28;19966;-57
2023/10/20 10:04:44;;;;;;;;;;;;;;;;;;5064686;28;20011;-57
2023/10/20 10:07:11;;;;;;;;;;;;;;;;;;5062861;28;19912;-57
2023/10/20 10:09:37;;;;;;;;;;;;;;;;;;5067731;28;19916;-58
2023/10/20 10:12:07;;;;;;;;;;;;;;;;;;5064222;28;22266;-56
2023/10/20 10:14:33;;;;;;;;;;;;;;;;;;5064017;28;19912;-55
2023/10/20 10:17:01;;;;;;;;;;;;;;;;;;5060443;28;19916;-56
2023/10/20 10:19:27;;;;;;;;;;;;;;;;;;5065924;28;19919;-56
2023/10/20 10:21:53;;;;;;;;;;;;;;;;;;5063641;28;19920;-57
2023/10/20 10:24:19;;;;;;;;;;;;;;;;;;5064124;28;20302;-56
2023/10/20 10:26:45;;;;;;;;;;;;;;;;;;5062096;28;20015;-57
2023/10/20 10:29:12;;;;;;;;;;;;;;;;;;5061730;28;20344;-56
2023/10/20 10:31:38;;;;;;;;;;;;;;;;;;5059167;28;19932;-56
2023/10/20 10:34:04;;;;;;;;;;;;;;;;;;5062207;28;19908;-56
2023/10/20 10:36:30;;;;;;;;;;;;;;;;;;5059001;28;19936;-56
2023/10/20 10:38:57;;;;;;;;;;;;;;;;;;5081096;28;19956;-56
2023/10/20 10:41:23;;;;;;;;;;;;;;;;;;5066582;28;19922;-57
2023/10/20 10:43:49;;;;;;;;;;;;;;;;;;5067569;28;19912;-57
2023/10/20 10:46:15;;;;;;;;;;;;;;;;;;5065419;28;20482;-57
2023/10/20 10:48:41;;;;;;;;;;;;;;;;;;5067941;28;19908;-56
2023/10/20 10:51:07;;;;;;;;;;;;;;;;;;5066843;28;19916;-59
2023/10/20 10:53:33;;;;;;;;;;;;;;;;;;5082602;28;20303;-56
2023/10/20 10:55:59;;;;;;;;;;;;;;;;;;5069187;28;19935;-61
2023/10/20 10:58:26;;;;;;;;;;;;;;;;;;5071854;28;20321;-56
2023/10/20 11:00:52;;;;;;;;;;;;;;;;;;5065467;28;19916;-59
2023/10/20 11:03:19;;;;;;;;;;;;;;;;;;5066850;28;19922;-57
2023/10/20 11:05:46;;;;;;;;;;;;;;;;;;5067096;28;19917;-59
2023/10/20 11:08:13;;;;;;;;;;;;;;;;;;5068226;28;19950;-59
2023/10/20 11:10:42;;;;;;;;;;;;;;;;;;5072727;28;19908;-59
2023/10/20 11:13:08;;;;;;;;;;;;;;;;;;5068133;28;20098;-59
2023/10/20 11:15:35;;;;;;;;;;;;;;;;;;5066661;28;19908;-59
2023/10/20 11:18:01;;;;;;;;;;;;;;;;;;5065449;28;20380;-60
2023/10/20 11:20:27;;;;;;;;;;;;;;;;;;5067549;28;20232;-59
2023/10/20 11:22:53;;;;;;;;;;;;;;;;;;5067565;28;19969;-60
2023/10/20 11:25:19;;;;;;;;;;;;;;;;;;5067689;28;19917;-60
2023/10/20 11:27:54;;;;;;;;;;;;;;;;;;5067264;28;19909;-59
2023/10/20 11:30:20;;;;;;;;;;;;;;;;;;5067305;28;20378;-59
2023/10/20 11:32:46;;;;;;;;;;;;;;;;;;5066065;28;19962;-59
2023/10/20 11:35:12;;;;;;;;;;;;;;;;;;5067908;28;20241;-59
2023/10/20 11:37:38;;;;;;;;;;;;;;;;;;5081638;28;19912;-59
2023/10/20 11:40:04;;;;;;;;;;;;;;;;;;5064729;28;19923;-57
2023/10/20 11:42:32;;;;;;;;;;;;;;;;;;5069821;28;20322;-57
2023/10/20 11:44:58;;;;;;;;;;;;;;;;;;5076882;28;19912;-57
2023/10/20 11:47:24;;;;;;;;;;;;;;;;;;5068815;28;19912;-57
2023/10/20 11:49:54;;;;;;;;;;;;;;;;;;5070626;28;19919;-57
2023/10/20 11:52:22;;;;;;;;;;;;;;;;;;5064333;28;19904;-57
2023/10/20 11:54:48;;;;;;;;;;;;;;;;;;5070796;28;19977;-57
2023/10/20 11:57:15;;;;;;;;;;;;;;;;;;5069313;28;19912;-57
2023/10/20 11:59:41;;;;;;;;;;;;;;;;;;5070579;28;19916;-57
2023/10/20 12:02:07;;;;;;;;;;;;;;;;;;5068526;28;19919;-57
2023/10/20 12:04:33;;;;;;;;;;;;;;;;;;5065314;28;19912;-57
2023/10/20 12:06:59;;;;;;;;;;;;;;;;;;5070178;28;20014;-59
2023/10/20 12:09:25;;;;;;;;;;;;;;;;;;5069706;28;19904;-58
2023/10/20 12:11:52;;;;;;;;;;;;;;;;;;5069440;28;19934;-57
2023/10/20 12:14:18;;;;;;;;;;;;;;;;;;5070318;28;19908;-56
2023/10/20 12:16:45;;;;;;;;;;;;;;;;;;5068575;28;19908;-56
2023/10/20 12:19:11;;;;;;;;;;;;;;;;;;5070881;28;19961;-56
2023/10/20 12:21:37;;;;;;;;;;;;;;;;;;5065126;28;20392;-57
2023/10/20 12:24:03;;;;;;;;;;;;;;;;;;5064060;28;19916;-56
2023/10/20 12:26:29;;;;;;;;;;;;;;;;;;5070533;28;19923;-56
2023/10/20 12:28:56;;;;;;;;;;;;;;;;;;5068675;28;20261;-56
2023/10/20 12:31:24;;;;;;;;;;;;;;;;;;5067316;28;19943;-56
2023/10/20 12:33:51;;;;;;;;;;;;;;;;;;5071726;28;19956;-56
2023/10/20 12:36:17;;;;;;;;;;;;;;;;;;5066785;28;19912;-56
2023/10/20 12:38:44;;;;;;;;;;;;;;;;;;5062646;28;19912;-57
2023/10/20 12:41:10;;;;;;;;;;;;;;;;;;5065926;28;20244;-56
2023/10/20 12:43:36;;;;;;;;;;;;;;;;;;5065059;28;19912;-56
2023/10/20 12:46:02;;;;;;;;;;;;;;;;;;5063957;28;19912;-57
2023/10/20 12:48:28;;;;;;;;;;;;;;;;;;5061811;28;19995;-57
2023/10/20 12:50:54;;;;;;;;;;;;;;;;;;5059473;28;20794;-56
2023/10/20 12:53:23;;;;;;;;;;;;;;;;;;5066177;28;20151;-58
2023/10/20 12:55:49;;;;;;;;;;;;;;;;;;5067073;28;19908;-57
2023/10/20 12:58:15;;;;;;;;;;;;;;;;;;5065462;28;19920;-57
2023/10/20 13:00:42;;;;;;;;;;;;;;;;;;5060395;28;19965;-57
2023/10/20 13:03:08;;;;;;;;;;;;;;;;;;5066042;28;19916;-56
2023/10/20 13:05:34;;;;;;;;;;;;;;;;;;5065970;28;19919;-58
2023/10/20 13:08:00;;;;;;;;;;;;;;;;;;5066874;28;19920;-56
2023/10/20 13:10:26;;;;;;;;;;;;;;;;;;5067672;28;19912;-55
2023/10/20 13:12:52;;;;;;;;;;;;;;;;;;5067034;28;20424;-56
2023/10/20 13:15:21;;;;;;;;;;;;;;;;;;5066921;28;20375;-56
2023/10/20 13:17:47;;;;;;;;;;;;;;;;;;5063139;28;20311;-56
2023/10/20 13:20:13;;;;;;;;;;;;;;;;;;5063936;28;20011;-57
2023/10/20 13:22:40;;;;;;;;;;;;;;;;;;5064420;28;20455;-57
2023/10/20 13:25:06;;;;;;;;;;;;;;;;;;5066364;28;19912;-59
2023/10/20 13:27:32;;;;;;;;;;;;;;;;;;5065895;28;19987;-59
2023/10/20 13:29:58;;;;;;;;;;;;;;;;;;5067150;28;19952;-59
2023/10/20 13:32:24;;;;;;;;;;;;;;;;;;5060375;28;19971;-58
2023/10/20 13:34:50;;;;;;;;;;;;;;;;;;5065770;28;19912;-58
2023/10/20 13:37:16;;;;;;;;;;;;;;;;;;5062337;28;19908;-58
2023/10/20 13:39:42;;;;;;;;;;;;;;;;;;5066811;28;20302;-58
2023/10/20 13:42:08;;;;;;;;;;;;;;;;;;5066387;28;19912;-58
2023/10/20 13:44:35;;;;;;;;;;;;;;;;;;5063382;28;19938;-59
2023/10/20 13:47:01;;;;;;;;;;;;;;;;;;5063721;28;19919;-59
2023/10/20 13:49:28;;;;;;;;;;;;;;;;;;5062934;28;19909;-58
2023/10/20 13:51:53;;;;;;;;;;;;;;;;;;5064636;28;19915;-59
2023/10/20 13:54:19;;;;;;;;;;;;;;;;;;5060818;28;20036;-59
2023/10/20 13:56:46;;;;;;;;;;;;;;;;;;5064081;28;19954;-58
2023/10/20 13:59:12;;;;;;;;;;;;;;;;;;5062859;28;20395;-59
2023/10/20 14:01:41;;;;;;;;;;;;;;;;;;5062703;28;19980;-59
2023/10/20 14:04:08;;;;;;;;;;;;;;;;;;5063148;28;20014;-59
2023/10/20 14:06:34;;;;;;;;;;;;;;;;;;5063080;28;20260;-59
2023/10/20 14:09:00;;;;;;;;;;;;;;;;;;5065622;28;19981;-59
2023/10/20 14:11:26;;;;;;;;;;;;;;;;;;5067381;28;19924;-58
2023/10/20 14:13:56;;;;;;;;;;;;;;;;;;5064932;28;20328;-58
2023/10/20 14:16:22;;;;;;;;;;;;;;;;;;5064212;28;19912;-57
2023/10/20 14:18:48;;;;;;;;;;;;;;;;;;5067669;28;20003;-57
2023/10/20 14:21:15;;;;;;;;;;;;;;;;;;5061217;28;19912;-57
2023/10/20 14:23:41;;;;;;;;;;;;;;;;;;5065851;28;20023;-57
2023/10/20 14:26:07;;;;;;;;;;;;;;;;;;5061386;28;20082;-56
2023/10/20 14:28:33;;;;;;;;;;;;;;;;;;5061042;28;20321;-57
2023/10/20 14:30:59;;;;;;;;;;;;;;;;;;5064807;28;19955;-57
2023/10/20 14:33:25;;;;;;;;;;;;;;;;;;5065697;28;19956;-57
2023/10/20 14:35:53;;;;;;;;;;;;;;;;;;5065580;28;19916;-56
2023/10/20 14:38:19;;;;;;;;;;;;;;;;;;5066296;28;19912;-56
2023/10/20 14:40:45;;;;;;;;;;;;;;;;;;5061202;28;19908;-55
2023/10/20 14:43:11;;;;;;;;;;;;;;;;;;5063950;28;19959;-55
2023/10/20 14:45:37;;;;;;;;;;;;;;;;;;5063682;28;20395;-57
2023/10/20 14:48:04;;;;;;;;;;;;;;;;;;5065086;28;20012;-56
2023/10/20 14:50:30;;;;;;;;;;;;;;;;;;5065227;28;19952;-56
2023/10/20 14:52:56;;;;;;;;;;;;;;;;;;5065062;28;19971;-56
2023/10/20 14:55:22;;;;;;;;;;;;;;;;;;5061592;28;20007;-56
2023/10/20 14:57:48;;;;;;;;;;;;;;;;;;5064053;28;20365;-56
2023/10/20 15:00:15;;;;;;;;;;;;;;;;;;5064320;28;19954;-56
2023/10/20 15:02:41;;;;;;;;;;;;;;;;;;5059238;28;20324;-56
2023/10/20 15:05:08;;;;;;;;;;;;;;;;;;5062306;28;19912;-55
2023/10/20 15:07:36;;;;;;;;;;;;;;;;;;5065020;28;19932;-56
2023/10/20 15:10:03;;;;;;;;;;;;;;;;;;5064475;28;19919;-57
2023/10/20 15:12:29;;;;;;;;;;;;;;;;;;5065234;28;19908;-57
2023/10/20 15:14:55;;;;;;;;;;;;;;;;;;5066285;28;19920;-57
2023/10/20 15:17:21;;;;;;;;;;;;;;;;;;5062436;28;20312;-59
2023/10/20 15:19:48;;;;;;;;;;;;;;;;;;5067558;28;20317;-56
2023/10/20 15:22:14;;;;;;;;;;;;;;;;;;5063227;28;19917;-58
2023/10/20 15:24:40;;;;;;;;;;;;;;;;;;5063225;28;19923;-56
2023/10/20 15:27:06;;;;;;;;;;;;;;;;;;5065262;28;20025;-55
2023/10/20 15:29:33;;;;;;;;;;;;;;;;;;5068730;28;20439;-56
2023/10/20 15:31:59;;;;;;;;;;;;;;;;;;5064708;28;19970;-55
2023/10/20 15:34:25;;;;;;;;;;;;;;;;;;5064886;28;20256;-57
2023/10/20 15:36:51;;;;;;;;;;;;;;;;;;5064080;28;19947;-63
2023/10/20 15:39:18;;;;;;;;;;;;;;;;;;5069524;28;19935;-56
2023/10/20 15:41:44;;;;;;;;;;;;;;;;;;5066212;28;19962;-57
2023/10/20 15:44:10;;;;;;;;;;;;;;;;;;5084174;28;20478;-56
2023/10/20 15:46:36;;;;;;;;;;;;;;;;;;5069428;28;20245;-57
2023/10/20 15:49:03;;;;;;;;;;;;;;;;;;5067890;28;19970;-56
2023/10/20 15:51:29;;;;;;;;;;;;;;;;;;5081407;28;19936;-56
2023/10/20 15:53:55;;;;;;;;;;;;;;;;;;5068562;28;19947;-57
2023/10/20 15:56:21;;;;;;;;;;;;;;;;;;5069489;28;20382;-56
2023/10/20 15:58:50;;;;;;;;;;;;;;;;;;5068050;28;19912;-56
2023/10/20 16:01:16;;;;;;;;;;;;;;;;;;5068110;28;19912;-56
2023/10/20 16:03:43;;;;;;;;;;;;;;;;;;5065983;28;20411;-56
2023/10/20 16:06:12;;;;;;;;;;;;;;;;;;5068198;28;20087;-57
2023/10/20 16:08:38;;;;;;;;;;;;;;;;;;5066564;28;20263;-57
2023/10/20 16:11:04;;;;;;;;;;;;;;;;;;5064732;28;20015;-56
2023/10/20 16:13:30;;;;;;;;;;;;;;;;;;5068830;28;20001;-57
2023/10/20 16:15:56;;;;;;;;;;;;;;;;;;5065220;28;20401;-57
2023/10/20 16:18:25;;;;;;;;;;;;;;;;;;5066337;28;19944;-57
2023/10/20 16:20:51;;;;;;;;;;;;;;;;;;5061966;28;19916;-56
2023/10/20 16:23:18;;;;;;;;;;;;;;;;;;5063727;28;20383;-57
2023/10/20 16:25:44;;;;;;;;;;;;;;;;;;5065211;28;19916;-56
2023/10/20 16:28:10;;;;;;;;;;;;;;;;;;5065521;28;20340;-57
2023/10/20 16:30:36;;;;;;;;;;;;;;;;;;5068318;28;20402;-58
2023/10/20 16:33:02;;;;;;;;;;;;;;;;;;5065398;28;20244;-57
2023/10/20 16:35:29;;;;;;;;;;;;;;;;;;5066554;28;19948;-58
2023/10/20 16:37:55;;;;;;;;;;;;;;;;;;5067495;28;19973;-57
2023/10/20 16:40:21;;;;;;;;;;;;;;;;;;5064865;28;20347;-58
2023/10/20 16:42:47;;;;;;;;;;;;;;;;;;5064721;28;19954;-58
2023/10/20 16:45:13;;;;;;;;;;;;;;;;;;5065677;28;19912;-58
2023/10/20 16:47:39;;;;;;;;;;;;;;;;;;5068445;28;19971;-57
2023/10/20 16:50:05;;;;;;;;;;;;;;;;;;5068148;28;19912;-58
2023/10/20 16:52:32;;;;;;;;;;;;;;;;;;5068661;28;19935;-59
2023/10/20 16:54:57;;;;;;;;;;;;;;;;;;5066075;28;20391;-57
2023/10/20 16:57:23;;;;;;;;;;;;;;;;;;5064305;28;19915;-57
2023/10/20 16:59:49;;;;;;;;;;;;;;;;;;5074457;28;19944;-57
2023/10/20 17:02:15;;;;;;;;;;;;;;;;;;5065941;28;20329;-57
2023/10/20 17:04:41;;;;;;;;;;;;;;;;;;5067508;28;20348;-57
2023/10/20 17:07:07;;;;;;;;;;;;;;;;;;5068245;28;19966;-57
2023/10/20 17:09:34;;;;;;;;;;;;;;;;;;5061265;28;19912;-57
2023/10/20 17:12:00;;;;;;;;;;;;;;;;;;5065818;28;20275;-57
2023/10/20 17:14:27;;;;;;;;;;;;;;;;;;5060280;28;19963;-57
2023/10/20 17:16:53;;;;;;;;;;;;;;;;;;5060621;28;19963;-57
2023/10/20 17:19:19;;;;;;;;;;;;;;;;;;5059541;28;19987;-57
2023/10/20 17:21:45;;;;;;;;;;;;;;;;;;5059121;28;19909;-57